Weather at Sheboygan County Memorial Airport

Public forecast

Using degrees Fahrenheit for public forecast. Weather courtesy of forecast.io.

Current aviation weather report (METAR) for Sheboygan County Memorial Airport

Retrieved 2021/09/25 04:53 UTC (2 hours ago):

KSBM 250453Z AUTO 30010G19KT 10SM -RA CLR 12/09 A2986 RMK AO2 SLP112 P0000 T01170094

Aviation forecast (TAF) for Sheboygan County Memorial Airport

Retrieved 2021/09/25 06:22 UTC (4 minutes ago):

TAF KSBM 250520Z 2506/2606 30010G21KT P6SM SCT015 BKN120 FM250800 28009KT P6SM SCT250 FM251800 27014G22KT P6SM SCT250 FM260000 26010KT P6SM SCT200